sensor_id;sensor_type;location;lat;lon;timestamp;temperature;humidity
32217;DHT22;67098;51.140;4.088;2023-06-10T00:01:55;26.00;54.20
32217;DHT22;67098;51.140;4.088;2023-06-10T00:04:28;25.90;54.20
32217;DHT22;67098;51.140;4.088;2023-06-10T00:06:54;25.90;54.40
32217;DHT22;67098;51.140;4.088;2023-06-10T00:09:20;25.90;54.40
32217;DHT22;67098;51.140;4.088;2023-06-10T00:11:47;25.90;54.70
32217;DHT22;67098;51.140;4.088;2023-06-10T00:14:13;25.90;54.70
32217;DHT22;67098;51.140;4.088;2023-06-10T00:16:39;25.80;54.60
32217;DHT22;67098;51.140;4.088;2023-06-10T00:19:05;25.80;54.90
32217;DHT22;67098;51.140;4.088;2023-06-10T00:21:32;25.80;55.10
32217;DHT22;67098;51.140;4.088;2023-06-10T00:24:06;25.70;55.30
32217;DHT22;67098;51.140;4.088;2023-06-10T00:26:33;25.70;55.40
32217;DHT22;67098;51.140;4.088;2023-06-10T00:29:02;25.60;55.50
32217;DHT22;67098;51.140;4.088;2023-06-10T00:31:28;25.60;55.80
32217;DHT22;67098;51.140;4.088;2023-06-10T00:33:53;25.60;55.90
32217;DHT22;67098;51.140;4.088;2023-06-10T00:36:20;25.60;56.00
32217;DHT22;67098;51.140;4.088;2023-06-10T00:38:46;25.50;56.20
32217;DHT22;67098;51.140;4.088;2023-06-10T00:41:12;25.50;56.40
32217;DHT22;67098;51.140;4.088;2023-06-10T00:43:37;25.40;56.40
32217;DHT22;67098;51.140;4.088;2023-06-10T00:46:03;25.40;56.70
32217;DHT22;67098;51.140;4.088;2023-06-10T00:48:30;25.40;57.30
32217;DHT22;67098;51.140;4.088;2023-06-10T00:50:56;25.30;57.00
32217;DHT22;67098;51.140;4.088;2023-06-10T00:53:22;25.30;57.10
32217;DHT22;67098;51.140;4.088;2023-06-10T00:55:48;25.20;57.20
32217;DHT22;67098;51.140;4.088;2023-06-10T00:58:15;25.10;57.30
32217;DHT22;67098;51.140;4.088;2023-06-10T01:00:41;25.10;57.40
32217;DHT22;67098;51.140;4.088;2023-06-10T01:03:07;25.10;57.40
32217;DHT22;67098;51.140;4.088;2023-06-10T01:05:38;25.10;57.50
32217;DHT22;67098;51.140;4.088;2023-06-10T01:10:57;25.10;57.80
32217;DHT22;67098;51.140;4.088;2023-06-10T01:13:25;25.00;57.90
32217;DHT22;67098;51.140;4.088;2023-06-10T01:15:55;25.00;58.10
32217;DHT22;67098;51.140;4.088;2023-06-10T01:18:22;24.90;58.20
32217;DHT22;67098;51.140;4.088;2023-06-10T01:20:47;24.90;58.30
32217;DHT22;67098;51.140;4.088;2023-06-10T01:23:14;25.00;58.30
32217;DHT22;67098;51.140;4.088;2023-06-10T01:25:49;24.90;58.20
32217;DHT22;67098;51.140;4.088;2023-06-10T01:29:03;25.00;58.40
32217;DHT22;67098;51.140;4.088;2023-06-10T01:31:35;24.90;58.40
32217;DHT22;67098;51.140;4.088;2023-06-10T01:34:07;24.90;58.60
32217;DHT22;67098;51.140;4.088;2023-06-10T01:36:35;24.90;58.60
32217;DHT22;67098;51.140;4.088;2023-06-10T01:39:03;24.80;58.60
32217;DHT22;67098;51.140;4.088;2023-06-10T01:41:30;24.70;58.80
32217;DHT22;67098;51.140;4.088;2023-06-10T01:43:56;24.70;58.80
32217;DHT22;67098;51.140;4.088;2023-06-10T01:46:22;24.70;59.00
32217;DHT22;67098;51.140;4.088;2023-06-10T01:48:48;24.70;59.10
32217;DHT22;67098;51.140;4.088;2023-06-10T01:51:14;24.60;59.20
32217;DHT22;67098;51.140;4.088;2023-06-10T01:53:40;24.60;59.30
32217;DHT22;67098;51.140;4.088;2023-06-10T01:56:05;24.60;59.40
32217;DHT22;67098;51.140;4.088;2023-06-10T01:58:31;24.50;59.40
32217;DHT22;67098;51.140;4.088;2023-06-10T02:00:57;24.50;59.60
32217;DHT22;67098;51.140;4.088;2023-06-10T02:03:23;24.50;59.60
32217;DHT22;67098;51.140;4.088;2023-06-10T02:05:49;24.50;59.60
32217;DHT22;67098;51.140;4.088;2023-06-10T02:08:15;24.40;59.70
32217;DHT22;67098;51.140;4.088;2023-06-10T02:10:41;24.40;60.00
32217;DHT22;67098;51.140;4.088;2023-06-10T02:13:06;24.40;60.00
32217;DHT22;67098;51.140;4.088;2023-06-10T02:15:32;24.30;60.10
32217;DHT22;67098;51.140;4.088;2023-06-10T02:17:59;24.30;60.30
32217;DHT22;67098;51.140;4.088;2023-06-10T02:20:26;24.30;60.40
32217;DHT22;67098;51.140;4.088;2023-06-10T02:22:52;24.30;60.50
32217;DHT22;67098;51.140;4.088;2023-06-10T02:25:18;24.20;60.60
32217;DHT22;67098;51.140;4.088;2023-06-10T02:27:43;24.20;60.80
32217;DHT22;67098;51.140;4.088;2023-06-10T02:30:09;24.20;60.90
32217;DHT22;67098;51.140;4.088;2023-06-10T02:32:36;24.20;61.00
32217;DHT22;67098;51.140;4.088;2023-06-10T02:35:02;24.20;61.00
32217;DHT22;67098;51.140;4.088;2023-06-10T02:37:27;24.10;61.10
32217;DHT22;67098;51.140;4.088;2023-06-10T02:39:53;24.10;61.10
32217;DHT22;67098;51.140;4.088;2023-06-10T02:42:19;24.10;61.20
32217;DHT22;67098;51.140;4.088;2023-06-10T02:44:45;24.00;61.40
32217;DHT22;67098;51.140;4.088;2023-06-10T02:47:10;24.00;61.40
32217;DHT22;67098;51.140;4.088;2023-06-10T02:49:36;24.00;61.40
32217;DHT22;67098;51.140;4.088;2023-06-10T02:52:02;24.00;61.30
32217;DHT22;67098;51.140;4.088;2023-06-10T02:54:28;24.00;61.40
32217;DHT22;67098;51.140;4.088;2023-06-10T02:56:54;24.00;61.60
32217;DHT22;67098;51.140;4.088;2023-06-10T02:59:21;23.90;61.60
32217;DHT22;67098;51.140;4.088;2023-06-10T03:01:47;23.90;61.90
32217;DHT22;67098;51.140;4.088;2023-06-10T03:04:13;23.80;62.10
32217;DHT22;67098;51.140;4.088;2023-06-10T03:06:40;23.80;62.20
32217;DHT22;67098;51.140;4.088;2023-06-10T03:09:11;23.80;62.50
32217;DHT22;67098;51.140;4.088;2023-06-10T03:11:36;23.70;62.40
32217;DHT22;67098;51.140;4.088;2023-06-10T03:14:02;23.70;62.60
32217;DHT22;67098;51.140;4.088;2023-06-10T03:16:29;23.70;62.60
32217;DHT22;67098;51.140;4.088;2023-06-10T03:18:56;23.70;62.60
32217;DHT22;67098;51.140;4.088;2023-06-10T03:21:22;23.70;62.80
32217;DHT22;67098;51.140;4.088;2023-06-10T03:23:48;23.60;62.90
32217;DHT22;67098;51.140;4.088;2023-06-10T03:26:14;23.60;63.10
32217;DHT22;67098;51.140;4.088;2023-06-10T03:28:41;23.60;63.30
32217;DHT22;67098;51.140;4.088;2023-06-10T03:31:07;23.60;63.30
32217;DHT22;67098;51.140;4.088;2023-06-10T03:33:32;23.60;63.50
32217;DHT22;67098;51.140;4.088;2023-06-10T03:35:58;23.60;63.60
32217;DHT22;67098;51.140;4.088;2023-06-10T03:38:24;23.60;63.50
32217;DHT22;67098;51.140;4.088;2023-06-10T03:40:50;23.50;63.60
32217;DHT22;67098;51.140;4.088;2023-06-10T03:43:16;23.50;63.90
32217;DHT22;67098;51.140;4.088;2023-06-10T03:45:42;23.50;63.90
32217;DHT22;67098;51.140;4.088;2023-06-10T03:48:08;23.50;64.10
32217;DHT22;67098;51.140;4.088;2023-06-10T03:50:34;23.50;64.10
32217;DHT22;67098;51.140;4.088;2023-06-10T03:53:01;23.40;64.30
32217;DHT22;67098;51.140;4.088;2023-06-10T03:55:27;23.30;64.50
32217;DHT22;67098;51.140;4.088;2023-06-10T03:57:53;23.40;64.60
32217;DHT22;67098;51.140;4.088;2023-06-10T04:00:19;23.40;64.60
32217;DHT22;67098;51.140;4.088;2023-06-10T04:02:48;23.40;64.50
32217;DHT22;67098;51.140;4.088;2023-06-10T04:05:19;23.40;64.60
32217;DHT22;67098;51.140;4.088;2023-06-10T04:07:47;23.50;64.70
32217;DHT22;67098;51.140;4.088;2023-06-10T04:10:14;23.40;64.70
32217;DHT22;67098;51.140;4.088;2023-06-10T04:12:41;23.40;64.70
32217;DHT22;67098;51.140;4.088;2023-06-10T04:15:07;23.50;64.70
32217;DHT22;67098;51.140;4.088;2023-06-10T04:17:34;23.50;64.80
32217;DHT22;67098;51.140;4.088;2023-06-10T04:20:00;23.50;64.70
32217;DHT22;67098;51.140;4.088;2023-06-10T04:22:26;23.60;64.70
32217;DHT22;67098;51.140;4.088;2023-06-10T04:24:52;23.60;64.70
32217;DHT22;67098;51.140;4.088;2023-06-10T04:27:18;23.60;64.80
32217;DHT22;67098;51.140;4.088;2023-06-10T04:29:44;23.60;64.70
32217;DHT22;67098;51.140;4.088;2023-06-10T04:32:10;23.70;64.80
32217;DHT22;67098;51.140;4.088;2023-06-10T04:34:36;23.70;64.60
32217;DHT22;67098;51.140;4.088;2023-06-10T04:37:04;23.70;64.50
32217;DHT22;67098;51.140;4.088;2023-06-10T04:39:30;23.80;64.50
32217;DHT22;67098;51.140;4.088;2023-06-10T04:41:56;23.80;64.40
32217;DHT22;67098;51.140;4.088;2023-06-10T04:44:22;23.90;64.30
32217;DHT22;67098;51.140;4.088;2023-06-10T04:46:47;24.00;64.20
32217;DHT22;67098;51.140;4.088;2023-06-10T04:49:13;24.00;64.70
32217;DHT22;67098;51.140;4.088;2023-06-10T04:51:42;24.10;63.90
32217;DHT22;67098;51.140;4.088;2023-06-10T04:54:07;24.20;63.70
32217;DHT22;67098;51.140;4.088;2023-06-10T04:56:34;24.30;63.70
32217;DHT22;67098;51.140;4.088;2023-06-10T04:59:01;24.30;63.70
32217;DHT22;67098;51.140;4.088;2023-06-10T05:01:27;24.50;63.50
32217;DHT22;67098;51.140;4.088;2023-06-10T05:03:53;24.50;63.00
32217;DHT22;67098;51.140;4.088;2023-06-10T05:06:19;24.60;62.80
32217;DHT22;67098;51.140;4.088;2023-06-10T05:08:44;24.70;62.80
32217;DHT22;67098;51.140;4.088;2023-06-10T05:11:10;24.80;62.60
32217;DHT22;67098;51.140;4.088;2023-06-10T05:13:36;24.80;62.50
32217;DHT22;67098;51.140;4.088;2023-06-10T05:16:01;24.90;62.30
32217;DHT22;67098;51.140;4.088;2023-06-10T05:18:27;25.00;62.00
32217;DHT22;67098;51.140;4.088;2023-06-10T05:20:54;25.10;61.90
32217;DHT22;67098;51.140;4.088;2023-06-10T05:23:20;25.20;61.50
32217;DHT22;67098;51.140;4.088;2023-06-10T05:25:46;25.20;61.50
32217;DHT22;67098;51.140;4.088;2023-06-10T05:28:19;25.30;61.60
32217;DHT22;67098;51.140;4.088;2023-06-10T05:30:55;25.40;61.60
32217;DHT22;67098;51.140;4.088;2023-06-10T05:33:21;25.40;61.00
32217;DHT22;67098;51.140;4.088;2023-06-10T05:35:47;25.50;61.20
32217;DHT22;67098;51.140;4.088;2023-06-10T05:38:12;25.60;60.90
32217;DHT22;67098;51.140;4.088;2023-06-10T05:40:38;25.70;60.60
32217;DHT22;67098;51.140;4.088;2023-06-10T05:43:04;25.80;60.50
32217;DHT22;67098;51.140;4.088;2023-06-10T05:45:30;25.90;60.60
32217;DHT22;67098;51.140;4.088;2023-06-10T05:47:56;26.00;59.80
32217;DHT22;67098;51.140;4.088;2023-06-10T05:50:22;26.00;60.20
32217;DHT22;67098;51.140;4.088;2023-06-10T05:52:47;26.10;60.00
32217;DHT22;67098;51.140;4.088;2023-06-10T05:55:13;26.20;59.80
32217;DHT22;67098;51.140;4.088;2023-06-10T05:57:41;26.40;59.80
32217;DHT22;67098;51.140;4.088;2023-06-10T06:00:07;26.50;59.40
32217;DHT22;67098;51.140;4.088;2023-06-10T06:02:33;26.60;58.80
32217;DHT22;67098;51.140;4.088;2023-06-10T06:04:59;26.70;58.50
32217;DHT22;67098;51.140;4.088;2023-06-10T06:07:26;26.70;58.30
32217;DHT22;67098;51.140;4.088;2023-06-10T06:09:52;26.80;58.50
32217;DHT22;67098;51.140;4.088;2023-06-10T06:12:17;26.90;58.20
32217;DHT22;67098;51.140;4.088;2023-06-10T06:14:43;27.00;57.90
32217;DHT22;67098;51.140;4.088;2023-06-10T06:17:10;27.10;58.00
32217;DHT22;67098;51.140;4.088;2023-06-10T06:19:36;27.20;57.40
32217;DHT22;67098;51.140;4.088;2023-06-10T06:22:01;27.30;57.20
32217;DHT22;67098;51.140;4.088;2023-06-10T06:24:28;27.40;57.10
32217;DHT22;67098;51.140;4.088;2023-06-10T06:26:53;27.50;56.90
32217;DHT22;67098;51.140;4.088;2023-06-10T06:29:19;27.50;56.40
32217;DHT22;67098;51.140;4.088;2023-06-10T06:31:45;27.60;56.40
32217;DHT22;67098;51.140;4.088;2023-06-10T06:34:11;27.70;56.40
32217;DHT22;67098;51.140;4.088;2023-06-10T06:36:36;27.80;55.90
32217;DHT22;67098;51.140;4.088;2023-06-10T06:39:02;27.80;55.90
32217;DHT22;67098;51.140;4.088;2023-06-10T06:41:28;27.90;56.10
32217;DHT22;67098;51.140;4.088;2023-06-10T06:43:55;27.90;55.90
32217;DHT22;67098;51.140;4.088;2023-06-10T06:46:21;28.10;55.80
32217;DHT22;67098;51.140;4.088;2023-06-10T06:48:48;28.20;55.30
32217;DHT22;67098;51.140;4.088;2023-06-10T06:51:14;28.30;55.40
32217;DHT22;67098;51.140;4.088;2023-06-10T06:53:40;28.40;55.40
32217;DHT22;67098;51.140;4.088;2023-06-10T06:56:10;28.60;55.20
32217;DHT22;67098;51.140;4.088;2023-06-10T06:58:36;28.80;55.60
32217;DHT22;67098;51.140;4.088;2023-06-10T07:01:02;29.00;55.20
32217;DHT22;67098;51.140;4.088;2023-06-10T07:03:28;29.10;54.10
32217;DHT22;67098;51.140;4.088;2023-06-10T07:05:54;29.20;54.20
32217;DHT22;67098;51.140;4.088;2023-06-10T07:08:20;29.40;54.10
32217;DHT22;67098;51.140;4.088;2023-06-10T07:10:45;29.60;53.70
32217;DHT22;67098;51.140;4.088;2023-06-10T07:13:11;29.70;53.50
32217;DHT22;67098;51.140;4.088;2023-06-10T07:15:38;29.90;53.30
32217;DHT22;67098;51.140;4.088;2023-06-10T07:18:04;30.00;52.80
32217;DHT22;67098;51.140;4.088;2023-06-10T07:20:30;30.20;52.90
32217;DHT22;67098;51.140;4.088;2023-06-10T07:22:58;30.20;52.40
32217;DHT22;67098;51.140;4.088;2023-06-10T07:25:23;30.10;53.00
32217;DHT22;67098;51.140;4.088;2023-06-10T07:27:50;30.20;52.00
32217;DHT22;67098;51.140;4.088;2023-06-10T07:30:16;30.40;51.90
32217;DHT22;67098;51.140;4.088;2023-06-10T07:32:42;30.50;50.90
32217;DHT22;67098;51.140;4.088;2023-06-10T07:35:09;30.70;51.00
32217;DHT22;67098;51.140;4.088;2023-06-10T07:37:38;30.80;50.10
32217;DHT22;67098;51.140;4.088;2023-06-10T07:40:05;30.90;50.80
32217;DHT22;67098;51.140;4.088;2023-06-10T07:42:34;31.10;50.40
32217;DHT22;67098;51.140;4.088;2023-06-10T07:45:00;31.10;50.00
32217;DHT22;67098;51.140;4.088;2023-06-10T07:47:27;31.40;49.90
32217;DHT22;67098;51.140;4.088;2023-06-10T07:49:53;31.60;49.50
32217;DHT22;67098;51.140;4.088;2023-06-10T07:52:19;31.80;49.00
32217;DHT22;67098;51.140;4.088;2023-06-10T07:54:45;32.00;48.90
32217;DHT22;67098;51.140;4.088;2023-06-10T07:57:10;32.20;48.50
32217;DHT22;67098;51.140;4.088;2023-06-10T07:59:36;32.50;48.80
32217;DHT22;67098;51.140;4.088;2023-06-10T08:02:02;32.80;49.00
32217;DHT22;67098;51.140;4.088;2023-06-10T08:04:28;33.10;48.00
32217;DHT22;67098;51.140;4.088;2023-06-10T08:06:56;33.20;47.60
32217;DHT22;67098;51.140;4.088;2023-06-10T08:09:22;33.50;47.80
32217;DHT22;67098;51.140;4.088;2023-06-10T08:11:49;33.70;47.60
32217;DHT22;67098;51.140;4.088;2023-06-10T08:14:15;34.00;47.00
32217;DHT22;67098;51.140;4.088;2023-06-10T08:16:42;34.30;46.50
32217;DHT22;67098;51.140;4.088;2023-06-10T08:19:08;34.50;46.20
32217;DHT22;67098;51.140;4.088;2023-06-10T08:21:35;34.80;45.70
32217;DHT22;67098;51.140;4.088;2023-06-10T08:24:03;34.90;45.10
32217;DHT22;67098;51.140;4.088;2023-06-10T08:26:29;35.10;44.80
32217;DHT22;67098;51.140;4.088;2023-06-10T08:28:54;35.00;44.70
32217;DHT22;67098;51.140;4.088;2023-06-10T08:31:21;35.10;44.90
32217;DHT22;67098;51.140;4.088;2023-06-10T08:33:47;35.10;43.90
32217;DHT22;67098;51.140;4.088;2023-06-10T08:36:12;35.10;44.00
32217;DHT22;67098;51.140;4.088;2023-06-10T08:38:38;35.20;44.20
32217;DHT22;67098;51.140;4.088;2023-06-10T08:41:05;35.40;44.00
32217;DHT22;67098;51.140;4.088;2023-06-10T08:43:52;35.60;43.00
32217;DHT22;67098;51.140;4.088;2023-06-10T08:46:20;35.70;43.50
32217;DHT22;67098;51.140;4.088;2023-06-10T08:48:48;36.00;43.70
32217;DHT22;67098;51.140;4.088;2023-06-10T08:51:17;36.20;42.50
32217;DHT22;67098;51.140;4.088;2023-06-10T08:53:52;36.10;41.70
32217;DHT22;67098;51.140;4.088;2023-06-10T08:56:21;36.20;42.00
32217;DHT22;67098;51.140;4.088;2023-06-10T08:58:48;36.20;42.10
32217;DHT22;67098;51.140;4.088;2023-06-10T09:01:14;36.40;42.20
32217;DHT22;67098;51.140;4.088;2023-06-10T09:03:42;36.50;42.00
32217;DHT22;67098;51.140;4.088;2023-06-10T09:06:08;36.80;42.60
32217;DHT22;67098;51.140;4.088;2023-06-10T09:08:35;37.00;42.20
32217;DHT22;67098;51.140;4.088;2023-06-10T09:11:01;37.30;42.00
32217;DHT22;67098;51.140;4.088;2023-06-10T09:13:27;37.40;41.60
32217;DHT22;67098;51.140;4.088;2023-06-10T09:15:52;37.60;41.80
32217;DHT22;67098;51.140;4.088;2023-06-10T09:18:18;37.90;41.50
32217;DHT22;67098;51.140;4.088;2023-06-10T09:20:44;38.00;40.70
32217;DHT22;67098;51.140;4.088;2023-06-10T09:23:10;38.30;40.50
32217;DHT22;67098;51.140;4.088;2023-06-10T09:25:37;38.60;40.40
32217;DHT22;67098;51.140;4.088;2023-06-10T09:28:04;38.90;40.20
32217;DHT22;67098;51.140;4.088;2023-06-10T09:30:34;39.10;39.40
32217;DHT22;67098;51.140;4.088;2023-06-10T09:33:02;39.10;38.90
32217;DHT22;67098;51.140;4.088;2023-06-10T09:35:30;39.20;38.60
32217;DHT22;67098;51.140;4.088;2023-06-10T09:37:57;39.10;38.50
32217;DHT22;67098;51.140;4.088;2023-06-10T09:40:23;39.20;39.00
32217;DHT22;67098;51.140;4.088;2023-06-10T09:42:54;39.50;38.70
32217;DHT22;67098;51.140;4.088;2023-06-10T09:45:21;39.60;38.10
32217;DHT22;67098;51.140;4.088;2023-06-10T09:47:50;39.60;38.00
32217;DHT22;67098;51.140;4.088;2023-06-10T09:50:17;39.50;37.50
32217;DHT22;67098;51.140;4.088;2023-06-10T09:52:43;39.40;37.50
32217;DHT22;67098;51.140;4.088;2023-06-10T09:55:11;39.30;38.40
32217;DHT22;67098;51.140;4.088;2023-06-10T09:57:36;39.40;37.60
32217;DHT22;67098;51.140;4.088;2023-06-10T10:00:07;39.30;37.80
32217;DHT22;67098;51.140;4.088;2023-06-10T10:02:50;39.50;38.50
32217;DHT22;67098;51.140;4.088;2023-06-10T10:05:18;39.80;38.50
32217;DHT22;67098;51.140;4.088;2023-06-10T10:07:45;39.80;37.20
32217;DHT22;67098;51.140;4.088;2023-06-10T10:10:12;40.00;36.90
32217;DHT22;67098;51.140;4.088;2023-06-10T10:12:39;40.10;37.40
32217;DHT22;67098;51.140;4.088;2023-06-10T10:15:10;40.20;37.00
32217;DHT22;67098;51.140;4.088;2023-06-10T10:20:29;40.50;36.90
32217;DHT22;67098;51.140;4.088;2023-06-10T10:22:59;40.60;36.20
32217;DHT22;67098;51.140;4.088;2023-06-10T10:25:30;40.70;36.30
32217;DHT22;67098;51.140;4.088;2023-06-10T10:28:12;40.90;36.20
32217;DHT22;67098;51.140;4.088;2023-06-10T10:30:42;41.10;36.40
32217;DHT22;67098;51.140;4.088;2023-06-10T10:33:16;41.30;36.00
32217;DHT22;67098;51.140;4.088;2023-06-10T10:35:43;41.40;35.30
32217;DHT22;67098;51.140;4.088;2023-06-10T10:38:09;41.60;36.30
32217;DHT22;67098;51.140;4.088;2023-06-10T10:40:36;41.70;35.10
32217;DHT22;67098;51.140;4.088;2023-06-10T10:43:02;41.70;35.10
32217;DHT22;67098;51.140;4.088;2023-06-10T10:45:29;41.80;35.30
32217;DHT22;67098;51.140;4.088;2023-06-10T10:47:55;42.00;35.40
32217;DHT22;67098;51.140;4.088;2023-06-10T10:50:22;42.40;35.20
32217;DHT22;67098;51.140;4.088;2023-06-10T10:52:55;42.80;34.80
32217;DHT22;67098;51.140;4.088;2023-06-10T10:55:24;43.00;34.50
32217;DHT22;67098;51.140;4.088;2023-06-10T10:57:54;42.90;33.00
32217;DHT22;67098;51.140;4.088;2023-06-10T11:03:06;43.00;33.40
32217;DHT22;67098;51.140;4.088;2023-06-10T11:05:42;43.20;33.80
32217;DHT22;67098;51.140;4.088;2023-06-10T11:08:15;43.30;33.60
32217;DHT22;67098;51.140;4.088;2023-06-10T11:10:51;43.50;34.00
32217;DHT22;67098;51.140;4.088;2023-06-10T11:13:20;43.50;32.80
32217;DHT22;67098;51.140;4.088;2023-06-10T11:15:50;43.30;32.90
32217;DHT22;67098;51.140;4.088;2023-06-10T11:18:25;43.60;33.30
32217;DHT22;67098;51.140;4.088;2023-06-10T11:21:02;43.80;33.00
32217;DHT22;67098;51.140;4.088;2023-06-10T11:31:31;43.20;31.60
32217;DHT22;67098;51.140;4.088;2023-06-10T11:34:02;42.90;32.20
32217;DHT22;67098;51.140;4.088;2023-06-10T11:36:29;43.10;32.40
32217;DHT22;67098;51.140;4.088;2023-06-10T11:39:00;43.20;32.30
32217;DHT22;67098;51.140;4.088;2023-06-10T11:41:27;43.50;32.50
32217;DHT22;67098;51.140;4.088;2023-06-10T11:43:59;43.70;32.50
32217;DHT22;67098;51.140;4.088;2023-06-10T11:46:26;43.90;32.50
32217;DHT22;67098;51.140;4.088;2023-06-10T11:48:58;44.10;32.10
32217;DHT22;67098;51.140;4.088;2023-06-10T11:51:28;44.30;32.30
32217;DHT22;67098;51.140;4.088;2023-06-10T11:53:56;44.60;31.80
32217;DHT22;67098;51.140;4.088;2023-06-10T11:58:56;44.50;31.30
32217;DHT22;67098;51.140;4.088;2023-06-10T12:01:25;44.50;30.90
32217;DHT22;67098;51.140;4.088;2023-06-10T12:04:12;44.60;31.70
32217;DHT22;67098;51.140;4.088;2023-06-10T12:06:49;44.70;31.40
32217;DHT22;67098;51.140;4.088;2023-06-10T12:11:44;44.70;30.70
32217;DHT22;67098;51.140;4.088;2023-06-10T12:14:10;44.50;30.50
32217;DHT22;67098;51.140;4.088;2023-06-10T12:16:36;44.40;30.70
32217;DHT22;67098;51.140;4.088;2023-06-10T12:19:03;44.50;31.10
32217;DHT22;67098;51.140;4.088;2023-06-10T12:21:31;44.70;32.10
32217;DHT22;67098;51.140;4.088;2023-06-10T12:24:08;45.10;31.00
32217;DHT22;67098;51.140;4.088;2023-06-10T12:26:44;45.60;31.00
32217;DHT22;67098;51.140;4.088;2023-06-10T12:29:24;45.70;30.30
32217;DHT22;67098;51.140;4.088;2023-06-10T12:32:00;45.60;30.40
32217;DHT22;67098;51.140;4.088;2023-06-10T12:34:37;45.60;30.20
32217;DHT22;67098;51.140;4.088;2023-06-10T12:37:12;45.60;30.30
32217;DHT22;67098;51.140;4.088;2023-06-10T12:39:42;45.30;30.20
32217;DHT22;67098;51.140;4.088;2023-06-10T12:42:12;45.00;30.60
32217;DHT22;67098;51.140;4.088;2023-06-10T12:44:41;44.80;30.40
32217;DHT22;67098;51.140;4.088;2023-06-10T12:47:08;44.60;31.00
32217;DHT22;67098;51.140;4.088;2023-06-10T12:49:36;44.70;31.20
32217;DHT22;67098;51.140;4.088;2023-06-10T12:52:02;44.80;30.70
32217;DHT22;67098;51.140;4.088;2023-06-10T12:54:28;44.80;30.70
32217;DHT22;67098;51.140;4.088;2023-06-10T12:56:53;44.50;29.90
32217;DHT22;67098;51.140;4.088;2023-06-10T12:59:20;44.40;29.80
32217;DHT22;67098;51.140;4.088;2023-06-10T13:01:55;44.40;30.30
32217;DHT22;67098;51.140;4.088;2023-06-10T13:04:21;44.50;30.30
32217;DHT22;67098;51.140;4.088;2023-06-10T13:06:48;44.50;30.30
32217;DHT22;67098;51.140;4.088;2023-06-10T13:09:15;44.50;30.40
32217;DHT22;67098;51.140;4.088;2023-06-10T13:11:41;44.60;30.30
32217;DHT22;67098;51.140;4.088;2023-06-10T13:14:08;44.50;30.10
32217;DHT22;67098;51.140;4.088;2023-06-10T13:16:36;44.40;30.00
32217;DHT22;67098;51.140;4.088;2023-06-10T13:19:04;44.20;30.70
32217;DHT22;67098;51.140;4.088;2023-06-10T13:21:32;44.40;31.00
32217;DHT22;67098;51.140;4.088;2023-06-10T13:23:57;44.90;31.30
32217;DHT22;67098;51.140;4.088;2023-06-10T13:26:23;45.10;30.40
32217;DHT22;67098;51.140;4.088;2023-06-10T13:28:49;45.40;30.00
32217;DHT22;67098;51.140;4.088;2023-06-10T13:31:15;45.50;29.90
32217;DHT22;67098;51.140;4.088;2023-06-10T13:33:40;45.70;29.80
32217;DHT22;67098;51.140;4.088;2023-06-10T13:36:09;45.60;29.70
32217;DHT22;67098;51.140;4.088;2023-06-10T13:38:35;45.40;29.60
32217;DHT22;67098;51.140;4.088;2023-06-10T13:41:00;45.20;29.60
32217;DHT22;67098;51.140;4.088;2023-06-10T13:43:26;45.00;29.70
32217;DHT22;67098;51.140;4.088;2023-06-10T13:45:52;44.00;30.00
32217;DHT22;67098;51.140;4.088;2023-06-10T13:48:18;43.80;30.00
32217;DHT22;67098;51.140;4.088;2023-06-10T13:50:43;43.70;30.40
32217;DHT22;67098;51.140;4.088;2023-06-10T13:53:11;43.90;30.30
32217;DHT22;67098;51.140;4.088;2023-06-10T13:55:37;44.00;30.00
32217;DHT22;67098;51.140;4.088;2023-06-10T13:58:03;43.70;30.20
32217;DHT22;67098;51.140;4.088;2023-06-10T14:00:29;43.70;30.20
32217;DHT22;67098;51.140;4.088;2023-06-10T14:02:55;43.70;30.30
32217;DHT22;67098;51.140;4.088;2023-06-10T14:05:20;43.70;30.20
32217;DHT22;67098;51.140;4.088;2023-06-10T14:07:46;43.80;30.10
32217;DHT22;67098;51.140;4.088;2023-06-10T14:10:12;43.80;30.40
32217;DHT22;67098;51.140;4.088;2023-06-10T14:12:38;44.00;30.60
32217;DHT22;67098;51.140;4.088;2023-06-10T14:15:04;44.30;30.50
32217;DHT22;67098;51.140;4.088;2023-06-10T14:17:30;44.60;30.50
32217;DHT22;67098;51.140;4.088;2023-06-10T14:19:56;44.70;29.90
32217;DHT22;67098;51.140;4.088;2023-06-10T14:22:22;44.80;30.00
32217;DHT22;67098;51.140;4.088;2023-06-10T14:24:47;45.00;29.80
32217;DHT22;67098;51.140;4.088;2023-06-10T14:27:13;44.90;29.60
32217;DHT22;67098;51.140;4.088;2023-06-10T14:29:39;44.80;29.40
32217;DHT22;67098;51.140;4.088;2023-06-10T14:32:06;44.40;30.10
32217;DHT22;67098;51.140;4.088;2023-06-10T14:34:32;44.20;29.70
32217;DHT22;67098;51.140;4.088;2023-06-10T14:37:01;44.10;29.90
32217;DHT22;67098;51.140;4.088;2023-06-10T14:39:29;44.00;29.70
32217;DHT22;67098;51.140;4.088;2023-06-10T14:41:55;43.90;29.80
32217;DHT22;67098;51.140;4.088;2023-06-10T14:44:21;44.00;30.10
32217;DHT22;67098;51.140;4.088;2023-06-10T14:46:46;44.10;29.80
32217;DHT22;67098;51.140;4.088;2023-06-10T14:49:12;44.10;29.70
32217;DHT22;67098;51.140;4.088;2023-06-10T14:51:38;44.10;30.00
32217;DHT22;67098;51.140;4.088;2023-06-10T14:54:04;44.30;30.10
32217;DHT22;67098;51.140;4.088;2023-06-10T14:56:30;44.50;30.00
32217;DHT22;67098;51.140;4.088;2023-06-10T14:58:55;44.30;29.40
32217;DHT22;67098;51.140;4.088;2023-06-10T15:01:21;44.10;29.50
32217;DHT22;67098;51.140;4.088;2023-06-10T15:03:47;43.90;30.00
32217;DHT22;67098;51.140;4.088;2023-06-10T15:06:13;43.60;29.70
32217;DHT22;67098;51.140;4.088;2023-06-10T15:08:42;43.40;30.00
32217;DHT22;67098;51.140;4.088;2023-06-10T15:11:08;43.40;30.30
32217;DHT22;67098;51.140;4.088;2023-06-10T15:13:33;43.50;30.30
32217;DHT22;67098;51.140;4.088;2023-06-10T15:15:59;43.70;30.20
32217;DHT22;67098;51.140;4.088;2023-06-10T15:18:26;43.70;30.00
32217;DHT22;67098;51.140;4.088;2023-06-10T15:20:51;43.60;30.00
32217;DHT22;67098;51.140;4.088;2023-06-10T15:23:17;43.40;30.20
32217;DHT22;67098;51.140;4.088;2023-06-10T15:25:43;43.30;30.40
32217;DHT22;67098;51.140;4.088;2023-06-10T15:28:09;43.00;30.00
32217;DHT22;67098;51.140;4.088;2023-06-10T15:30:35;42.80;30.40
32217;DHT22;67098;51.140;4.088;2023-06-10T15:33:03;42.80;30.40
32217;DHT22;67098;51.140;4.088;2023-06-10T15:35:29;42.80;30.70
32217;DHT22;67098;51.140;4.088;2023-06-10T15:37:55;42.90;30.30
32217;DHT22;67098;51.140;4.088;2023-06-10T15:40:20;42.90;30.30
32217;DHT22;67098;51.140;4.088;2023-06-10T15:42:46;43.00;30.40
32217;DHT22;67098;51.140;4.088;2023-06-10T15:45:12;43.10;30.40
32217;DHT22;67098;51.140;4.088;2023-06-10T15:47:38;43.00;30.20
32217;DHT22;67098;51.140;4.088;2023-06-10T15:50:06;43.10;30.40
32217;DHT22;67098;51.140;4.088;2023-06-10T15:52:32;43.20;30.30